Time,TemperatureF,DewpointF,PressureIn,WindDirection,WindDirectionDegrees,WindSpeedMPH,WindSpeedGustMPH,Humidity,HourlyPrecipIn,Conditions,Clouds,dailyrainin,SoftwareType,DateUTC
2013-04-08 00:12:00,53.1,42.0,30.12,NE,40,1.0,4.0,67,0.00,,,0.00,weatherlink.com 1.10,2013-04-08 04:12:00,
2013-04-08 00:27:00,52.7,42.0,30.12,NE,51,1.0,3.0,67,0.00,,,0.00,weatherlink.com 1.10,2013-04-08 04:27:00,
2013-04-08 00:42:00,52.5,42.0,30.12,NE,51,0.0,2.0,68,0.00,,,0.00,weatherlink.com 1.10,2013-04-08 04:42:00,
2013-04-08 00:57:00,52.3,42.0,30.12,North,355,0.0,3.0,69,0.00,,,0.00,weatherlink.com 1.10,2013-04-08 04:57:00,
2013-04-08 01:12:00,52.8,43.0,30.12,NNE,16,0.0,3.0,69,0.00,,,0.00,weatherlink.com 1.10,2013-04-08 05:12:00,
2013-04-08 01:27:00,53.0,43.0,30.11,West,266,0.0,7.0,69,0.00,,,0.00,weatherlink.com 1.10,2013-04-08 05:27:00,
2013-04-08 01:42:00,52.9,43.0,30.11,North,355,0.0,4.0,69,0.00,,,0.00,weatherlink.com 1.10,2013-04-08 05:42:00,
2013-04-08 01:57:00,52.7,43.0,30.11,NNW,347,3.0,4.0,69,0.00,,,0.00,weatherlink.com 1.10,2013-04-08 05:57:00,
2013-04-08 02:12:00,52.5,43.0,30.10,NNE,13,1.0,3.0,70,0.00,,,0.00,weatherlink.com 1.10,2013-04-08 06:12:00,
2013-04-08 02:27:00,52.2,43.0,30.10,NNW,331,0.0,4.0,71,0.00,,,0.00,weatherlink.com 1.10,2013-04-08 06:27:00,
2013-04-08 02:42:00,52.3,43.0,30.09,NNE,12,2.0,5.0,71,0.00,,,0.00,weatherlink.com 1.10,2013-04-08 06:42:00,
2013-04-08 02:57:00,52.4,44.0,30.09,North,355,5.0,6.0,72,0.00,,,0.00,weatherlink.com 1.10,2013-04-08 06:57:00,
2013-04-08 03:12:00,52.5,44.0,30.09,North,350,1.0,8.0,72,0.00,,,0.00,weatherlink.com 1.10,2013-04-08 07:12:00,
2013-04-08 03:27:00,52.4,44.0,30.09,NNE,13,2.0,5.0,73,0.00,,,0.00,weatherlink.com 1.10,2013-04-08 07:27:00,
2013-04-08 03:42:00,52.5,44.0,30.09,North,5,2.0,7.0,73,0.00,,,0.00,weatherlink.com 1.10,2013-04-08 07:42:00,
2013-04-08 03:57:00,52.6,44.0,30.09,North,5,2.0,7.0,73,0.00,,,0.00,weatherlink.com 1.10,2013-04-08 07:57:00,
2013-04-08 04:12:00,52.6,45.0,30.09,NE,46,1.0,8.0,74,0.00,,,0.00,weatherlink.com 1.10,2013-04-08 08:12:00,
2013-04-08 04:27:00,52.3,44.0,30.09,NNW,335,2.0,4.0,74,0.00,,,0.00,weatherlink.com 1.10,2013-04-08 08:27:00,
2013-04-08 04:42:00,52.4,45.0,30.09,NNW,342,4.0,6.0,75,0.00,,,0.00,weatherlink.com 1.10,2013-04-08 08:42:00,
2013-04-08 04:57:00,52.3,45.0,30.09,NW,314,1.0,4.0,75,0.00,,,0.00,weatherlink.com 1.10,2013-04-08 08:57:00,
2013-04-08 05:12:00,52.0,45.0,30.08,NE,46,3.0,4.0,77,0.00,,,0.00,weatherlink.com 1.10,2013-04-08 09:12:00,
2013-04-08 05:27:00,52.3,45.0,30.08,NNE,26,2.0,6.0,77,0.00,,,0.00,weatherlink.com 1.10,2013-04-08 09:27:00,
2013-04-08 05:42:00,52.3,45.0,30.07,WSW,258,5.0,8.0,77,0.00,,,0.00,weatherlink.com 1.10,2013-04-08 09:42:00,
2013-04-08 05:57:00,52.2,46.0,30.07,NNE,30,3.0,7.0,78,0.00,,,0.00,weatherlink.com 1.10,2013-04-08 09:57:00,
2013-04-08 06:12:00,52.0,46.0,30.08,NE,47,2.0,4.0,79,0.00,,,0.00,weatherlink.com 1.10,2013-04-08 10:12:00,
2013-04-08 06:28:00,51.8,46.0,30.08,SSE,155,1.0,7.0,79,0.00,,,0.00,weatherlink.com 1.10,2013-04-08 10:28:00,
2013-04-08 06:40:00,51.5,45.5,30.08,NNE,19,2.0,9.0,80,0.00,,,0.00,Wunderground v.1.15,2013-04-08 10:40:00,
2013-04-08 06:45:00,51.4,45.4,30.09,NNW,332,1.0,9.0,80,0.00,,,0.00,Wunderground v.1.15,2013-04-08 10:45:00,
2013-04-08 06:58:00,51.5,46.0,30.09,North,11,2.0,4.0,81,0.00,,,0.00,weatherlink.com 1.10,2013-04-08 10:58:00,
2013-04-08 07:13:00,52.0,46.0,30.10,SW,225,3.0,8.0,80,0.00,,,0.00,weatherlink.com 1.10,2013-04-08 11:13:00,
2013-04-08 07:28:00,52.5,47.0,30.11,SW,223,6.0,7.0,80,0.00,,,0.00,weatherlink.com 1.10,2013-04-08 11:28:00,
2013-04-08 07:43:00,52.6,47.0,30.11,SSW,206,0.0,7.0,80,0.00,,,0.00,weatherlink.com 1.10,2013-04-08 11:43:00,
2013-04-08 07:58:00,52.6,47.0,30.12,SSW,208,3.0,6.0,81,0.00,,,0.00,weatherlink.com 1.10,2013-04-08 11:58:00,
2013-04-08 08:13:00,52.6,47.0,30.12,NW,321,1.0,5.0,81,0.00,,,0.00,weatherlink.com 1.10,2013-04-08 12:13:00,
2013-04-08 08:28:00,52.7,47.0,30.12,North,350,2.0,5.0,81,0.00,,,0.00,weatherlink.com 1.10,2013-04-08 12:28:00,
2013-04-08 08:43:00,52.8,47.0,30.12,West,259,4.0,5.0,82,0.00,,,0.00,weatherlink.com 1.10,2013-04-08 12:43:00,
2013-04-08 08:58:00,53.1,48.0,30.12,NW,304,2.0,5.0,82,0.00,,,0.00,weatherlink.com 1.10,2013-04-08 12:58:00,
2013-04-08 09:13:00,53.0,48.0,30.12,WSW,246,2.0,4.0,82,0.00,,,0.00,weatherlink.com 1.10,2013-04-08 13:13:00,
2013-04-08 09:28:00,53.1,48.0,30.12,WSW,240,2.0,5.0,82,0.00,,,0.00,weatherlink.com 1.10,2013-04-08 13:28:00,
2013-04-08 09:43:00,53.5,48.0,30.13,NNW,345,1.0,6.0,82,0.00,,,0.00,weatherlink.com 1.10,2013-04-08 13:43:00,
2013-04-08 10:13:00,54.2,49.0,30.12,West,278,3.0,9.0,81,0.00,,,0.00,weatherlink.com 1.10,2013-04-08 14:13:00,
2013-04-08 10:28:00,55.1,49.0,30.12,NW,317,3.0,9.0,80,0.00,,,0.00,weatherlink.com 1.10,2013-04-08 14:28:00,
2013-04-08 10:43:00,56.3,49.0,30.12,NW,322,3.0,9.0,77,0.00,,,0.00,weatherlink.com 1.10,2013-04-08 14:43:00,
2013-04-08 10:58:00,57.2,49.0,30.13,SW,232,2.0,11.0,74,0.00,,,0.00,weatherlink.com 1.10,2013-04-08 14:58:00,
2013-04-08 11:13:00,57.7,48.0,30.13,SW,220,5.0,12.0,70,0.00,,,0.00,weatherlink.com 1.10,2013-04-08 15:13:00,
2013-04-08 11:28:00,58.6,48.0,30.12,WSW,253,4.0,6.0,69,0.00,,,0.00,weatherlink.com 1.10,2013-04-08 15:28:00,
2013-04-08 11:43:00,59.5,49.0,30.12,SSW,210,5.0,10.0,68,0.00,,,0.00,weatherlink.com 1.10,2013-04-08 15:43:00,
2013-04-08 11:58:00,59.3,48.0,30.12,West,271,1.0,10.0,66,0.00,,,0.00,weatherlink.com 1.10,2013-04-08 15:58:00,
2013-04-08 12:13:00,60.6,48.0,30.12,NW,318,0.0,7.0,63,0.00,,,0.00,weatherlink.com 1.10,2013-04-08 16:13:00,
2013-04-08 12:43:00,61.4,48.0,30.12,ENE,67,2.0,9.0,61,0.00,,,0.00,weatherlink.com 1.10,2013-04-08 16:43:00,
2013-04-08 13:13:00,61.7,46.0,30.11,NNE,24,2.0,8.0,57,0.00,,,0.00,weatherlink.com 1.10,2013-04-08 17:13:00,
2013-04-08 13:29:00,63.6,48.0,30.10,SSE,153,2.0,7.0,57,0.00,,,0.00,weatherlink.com 1.10,2013-04-08 17:29:00,
2013-04-08 13:50:00,64.7,47.2,30.10,West,267,4.0,4.0,53,0.00,,,0.00,Wunderground v.1.15,2013-04-08 17:50:00,
2013-04-08 13:59:00,65.9,48.0,30.10,WSW,244,7.0,14.0,53,0.00,,,0.00,weatherlink.com 1.10,2013-04-08 17:59:00,
2013-04-08 14:05:00,64.8,47.8,30.10,WNW,290,5.0,6.0,54,0.00,,,0.00,Wunderground v.1.15,2013-04-08 18:05:00,
2013-04-08 14:10:00,64.3,47.3,30.09,NNW,331,5.0,5.0,54,0.00,,,0.00,Wunderground v.1.15,2013-04-08 18:10:00,
2013-04-08 14:20:00,65.1,48.0,30.09,SSE,150,3.0,3.0,54,0.00,,,0.00,Wunderground v.1.15,2013-04-08 18:20:00,
2013-04-08 14:29:00,65.4,47.0,30.09,NW,312,4.0,13.0,52,0.00,,,0.00,weatherlink.com 1.10,2013-04-08 18:29:00,
2013-04-08 14:35:00,65.2,47.1,30.09,NW,306,4.0,6.0,52,0.00,,,0.00,Wunderground v.1.15,2013-04-08 18:35:00,
2013-04-08 14:40:00,65.4,46.8,30.09,WNW,286,4.0,4.0,51,0.00,,,0.00,Wunderground v.1.15,2013-04-08 18:40:00,
2013-04-08 14:50:00,66.0,47.3,30.08,SW,225,3.0,3.0,51,0.00,,,0.00,Wunderground v.1.15,2013-04-08 18:50:00,
2013-04-08 14:55:00,66.7,48.5,30.09,West,259,4.0,4.0,52,0.00,,,0.00,Wunderground v.1.15,2013-04-08 18:55:00,
2013-04-08 15:00:00,66.9,47.6,30.08,WSW,257,4.0,4.0,50,0.00,,,0.00,Wunderground v.1.15,2013-04-08 19:00:00,
2013-04-08 15:10:00,65.4,46.8,30.08,WSW,253,5.0,5.0,51,0.00,,,0.00,Wunderground v.1.15,2013-04-08 19:10:00,
2013-04-08 15:25:00,64.8,46.8,30.08,NW,315,5.0,6.0,52,0.00,,,0.00,Wunderground v.1.15,2013-04-08 19:25:00,
2013-04-08 15:31:00,65.9,47.0,30.08,NE,44,0.0,5.0,51,0.00,,,0.00,weatherlink.com 1.10,2013-04-08 19:31:00,
2013-04-08 15:40:00,65.8,46.6,30.08,North,355,2.0,2.0,50,0.00,,,0.00,Wunderground v.1.15,2013-04-08 19:40:00,
2013-04-08 15:50:00,65.0,46.9,30.07,NE,41,2.0,3.0,52,0.00,,,0.00,Wunderground v.1.15,2013-04-08 19:50:00,
2013-04-08 15:55:00,65.2,47.1,30.08,SSE,163,2.0,5.0,52,0.00,,,0.00,Wunderground v.1.15,2013-04-08 19:55:00,
2013-04-08 16:00:00,65.1,47.0,30.07,SSE,163,0.0,7.0,52,0.00,,,0.00,weatherlink.com 1.10,2013-04-08 20:00:00,
2013-04-08 16:05:00,65.5,49.4,30.07,SSE,167,2.0,4.0,56,0.00,,,0.00,Wunderground v.1.15,2013-04-08 20:05:00,
2013-04-08 16:15:00,66.8,48.1,30.07,SSE,168,2.0,2.0,51,0.00,,,0.00,Wunderground v.1.15,2013-04-08 20:15:00,
2013-04-08 16:20:00,66.8,47.6,30.07,NE,42,2.0,2.0,50,0.00,,,0.00,Wunderground v.1.15,2013-04-08 20:20:00,
2013-04-08 16:30:00,65.8,49.2,30.07,NNE,26,1.0,3.0,55,0.00,,,0.00,Wunderground v.1.15,2013-04-08 20:30:00,
2013-04-08 16:40:00,67.3,48.0,30.06,SW,229,2.0,4.0,50,0.00,,,0.00,Wunderground v.1.15,2013-04-08 20:40:00,
2013-04-08 16:45:00,66.9,47.1,30.06,WNW,293,3.0,4.0,49,0.00,,,0.00,Wunderground v.1.15,2013-04-08 20:45:00,
2013-04-08 16:50:00,66.8,48.1,30.06,WSW,254,3.0,3.0,51,0.00,,,0.00,Wunderground v.1.15,2013-04-08 20:50:00,
2013-04-08 17:00:00,68.3,47.8,30.06,SW,229,2.0,4.0,48,0.00,,,0.00,Wunderground v.1.15,2013-04-08 21:00:00,
2013-04-08 17:05:00,66.8,47.0,30.05,WSW,237,4.0,5.0,49,0.00,,,0.00,Wunderground v.1.15,2013-04-08 21:05:00,
2013-04-08 17:10:00,66.7,48.5,30.06,NNE,22,5.0,5.0,52,0.00,,,0.00,Wunderground v.1.15,2013-04-08 21:10:00,
2013-04-08 17:16:00,67.3,48.0,30.06,WSW,246,3.0,9.0,50,0.00,,,0.00,weatherlink.com 1.10,2013-04-08 21:16:00,
2013-04-08 17:25:00,67.9,48.0,30.06,WNW,296,2.0,5.0,49,0.00,,,0.00,Wunderground v.1.15,2013-04-08 21:25:00,
2013-04-08 17:30:00,67.4,47.6,30.06,NNW,339,4.0,4.0,49,0.00,,,0.00,Wunderground v.1.15,2013-04-08 21:30:00,
2013-04-08 17:35:00,67.7,46.7,30.06,SW,235,3.0,5.0,47,0.00,,,0.00,Wunderground v.1.15,2013-04-08 21:35:00,
2013-04-08 17:40:00,67.2,47.4,30.06,ENE,60,2.0,2.0,49,0.00,,,0.00,Wunderground v.1.15,2013-04-08 21:40:00,
2013-04-08 17:46:00,67.4,48.0,30.06,SSE,164,0.0,6.0,51,0.00,,,0.00,weatherlink.com 1.10,2013-04-08 21:46:00,
2013-04-08 17:55:00,67.6,47.2,30.06,NNW,347,2.0,2.0,48,0.00,,,0.00,Wunderground v.1.15,2013-04-08 21:55:00,
2013-04-08 18:00:00,67.4,47.0,30.07,SW,229,3.0,3.0,48,0.00,,,0.00,Wunderground v.1.15,2013-04-08 22:00:00,
2013-04-08 18:05:00,67.1,47.3,30.07,WNW,303,2.0,3.0,49,0.00,,,0.00,Wunderground v.1.15,2013-04-08 22:05:00,
2013-04-08 18:15:00,65.6,47.5,30.07,West,269,2.0,2.0,52,0.00,,,0.00,Wunderground v.1.15,2013-04-08 22:15:00,
2013-04-08 18:20:00,65.8,48.2,30.07,SW,215,2.0,6.0,53,0.00,,,0.00,Wunderground v.1.15,2013-04-08 22:20:00,
2013-04-08 18:30:00,65.8,47.2,30.07,North,360,2.0,4.0,51,0.00,,,0.00,Wunderground v.1.15,2013-04-08 22:30:00,
2013-04-08 18:40:00,65.8,48.2,30.07,WSW,250,3.0,3.0,53,0.00,,,0.00,Wunderground v.1.15,2013-04-08 22:40:00,
2013-04-08 18:45:00,65.9,47.3,30.07,NNW,330,2.0,3.0,51,0.00,,,0.00,Wunderground v.1.15,2013-04-08 22:45:00,
2013-04-08 18:50:00,64.9,46.8,30.07,NW,306,3.0,5.0,52,0.00,,,0.00,Wunderground v.1.15,2013-04-08 22:50:00,
2013-04-08 19:00:00,64.2,47.2,30.07,WNW,290,2.0,2.0,54,0.00,,,0.00,Wunderground v.1.15,2013-04-08 23:00:00,
2013-04-08 19:10:00,63.1,46.7,30.07,SW,215,2.0,2.0,55,0.00,,,0.00,Wunderground v.1.15,2013-04-08 23:10:00,
2013-04-08 19:15:00,62.7,46.8,30.07,WNW,294,2.0,2.0,56,0.00,,,0.00,Wunderground v.1.15,2013-04-08 23:15:00,
2013-04-08 19:20:00,62.5,47.1,30.07,NW,318,1.0,3.0,57,0.00,,,0.00,Wunderground v.1.15,2013-04-08 23:20:00,
2013-04-08 19:25:00,62.2,46.8,30.07,North,355,1.0,3.0,57,0.00,,,0.00,Wunderground v.1.15,2013-04-08 23:25:00,
2013-04-08 19:32:00,61.8,47.0,30.07,NW,309,1.0,5.0,59,0.00,,,0.00,weatherlink.com 1.10,2013-04-08 23:32:00,
2013-04-08 19:40:00,61.6,47.1,30.07,NNW,346,1.0,2.0,59,0.00,,,0.00,Wunderground v.1.15,2013-04-08 23:40:00,
2013-04-08 19:45:00,61.2,47.2,30.08,WSW,250,2.0,2.0,60,0.00,,,0.00,Wunderground v.1.15,2013-04-08 23:45:00,
2013-04-08 19:50:00,60.8,47.3,30.08,WNW,289,2.0,2.0,61,0.00,,,0.00,Wunderground v.1.15,2013-04-08 23:50:00,
2013-04-08 20:00:00,60.1,47.5,30.08,North,355,2.0,3.0,63,0.00,,,0.00,Wunderground v.1.15,2013-04-09 00:00:00,
2013-04-08 20:10:00,59.7,47.5,30.08,NNE,19,3.0,3.0,64,0.00,,,0.00,Wunderground v.1.15,2013-04-09 00:10:00,
2013-04-08 20:15:00,59.5,47.3,30.08,NNW,333,3.0,3.0,64,0.00,,,0.00,Wunderground v.1.15,2013-04-09 00:15:00,
2013-04-08 20:20:00,59.3,47.5,30.08,NNW,346,2.0,2.0,65,0.00,,,0.00,Wunderground v.1.15,2013-04-09 00:20:00,
2013-04-08 20:30:00,59.0,47.2,30.09,NNW,332,2.0,2.0,65,0.00,,,0.00,Wunderground v.1.15,2013-04-09 00:30:00,
2013-04-08 20:36:00,58.9,47.0,30.08,NE,51,1.0,6.0,66,0.00,,,0.00,weatherlink.com 1.10,2013-04-09 00:36:00,
2013-04-08 20:45:00,58.8,47.5,30.09,NNE,31,2.0,2.0,66,0.00,,,0.00,Wunderground v.1.15,2013-04-09 00:45:00,
2013-04-08 20:50:00,58.6,47.7,30.09,North,9,2.0,2.0,67,0.00,,,0.00,Wunderground v.1.15,2013-04-09 00:50:00,
2013-04-08 21:00:00,58.6,48.1,30.10,NE,46,2.0,3.0,68,0.00,,,0.00,Wunderground v.1.15,2013-04-09 01:00:00,
2013-04-08 21:34:00,57.9,48.0,30.10,NE,36,1.0,4.0,70,0.00,,,0.00,weatherlink.com 1.10,2013-04-09 01:34:00,
2013-04-08 21:49:00,58.0,48.0,30.10,NW,318,0.0,5.0,70,0.00,,,0.00,weatherlink.com 1.10,2013-04-09 01:49:00,
2013-04-08 22:19:00,57.5,49.0,30.11,NNE,26,0.0,2.0,72,0.00,,,0.00,weatherlink.com 1.10,2013-04-09 02:19:00,
2013-04-08 22:34:00,57.4,48.0,30.10,ENE,57,2.0,3.0,72,0.00,,,0.00,weatherlink.com 1.10,2013-04-09 02:34:00,
2013-04-08 22:49:00,57.6,49.0,30.10,NE,48,1.0,3.0,72,0.00,,,0.00,weatherlink.com 1.10,2013-04-09 02:49:00,
2013-04-08 23:19:00,57.4,49.0,30.10,North,355,3.0,3.0,73,0.00,,,0.00,weatherlink.com 1.10,2013-04-09 03:19:00,
2013-04-08 23:49:00,57.1,49.0,30.10,NE,48,2.0,8.0,74,0.00,,,0.00,weatherlink.com 1.10,2013-04-09 03:49:00,